Minot Air Force Base
KMIB : now visible

Airfield :











YOU CAN JOIN US ON...

 
LOGIN :

Register | Disclaimer

   EN    FR    IT 

 









Legend :    VFR   Marginal VFR   IFR   Intensive IFR   Very Intensive IFR
Visi :
Ceiling :
>= 8 km
>= 3000ft
5 to 8 km
1000 to 3000 ft
1500m to 5 km
500 to 1000 ft
800 to 1500m
200 to 500 ft
< 800m
< 200 ft
Symbols :   Thunderstorms  Fog  Heavy snow  Heavy precipitations  Wind > 20 kt






- Airport Elevation : 1667 ft


KMIB - Minot Air Force Base

CURRENT METAR :
  • 160856Z AUTO 19004KT 10SM OVC005 M07/M08 A2990 RMK AO2 SLP159 T10741082 58016

EXPIRED METARs :
  • 160756Z AUTO 21004KT 10SM OVC005 M07/M08 A2992 RMK AO2 SLP165 T10751085
  • 160656Z AUTO 24003KT 10SM OVC005 M08/M09 A2995 RMK AO2 SLP177 T10761087
  • 160651Z AUTO 00000KT 10SM OVC005 M08/M09 A2995 RMK AO2 SLP177

TAF TAF KMIB
Valid from the 16 at 09:00 until the 17 at 15:00 UTC


160900Z 1609/1715 VRB06KT 9999 OVC005 WS010/30020KT QNH2990INS
TEMPO 1614/1616 4000 BR OVC002
BECMG 1615/1616 30009KT 9999 OVC008 QNH2989INS
BECMG 1617/1618 30012G18KT 9999 OVC010 QNH2987INS
BECMG 1619/1620 30015G25KT 9999 OVC015 QNH2987INS
TEMPO 1621/1622 30020G30KT 540009
BECMG 1623/1624 30012G18KT 9999 BKN030 WS020/30040KT QNH2986INS TX02/1620Z TNM05/1609Z
KZMP FIR / North America



MET'MAP, your aeronautical weather chart ! - Copyright ORBIFLY December 2007 - Disclaimer

ORBIFLY MET'MAP TEAM :

Programming & Development : Alexandra Zaïnal
Concept & original design : Baudouin d'Aumeries
Assistance for programming : Marc-Olivier Méhu
Technical & hardware support : Manuel Goepfert

Contact : metmap@orbifly.com




SOURCES & CREDITS :

   NOAA       Earth
Advisory